Ridgefield, Ohio
Current Conditions -  °F | °C
As of 12:52 AM on Saturday 20 Dec 2014 (Local Time) from KPCW Reporting Station
Overcast Overcast  
Wind Chill: 28°   Ceiling: 2300
Heat Index: 28°   Visibility: 10mi
Dew Point: 19°   Wind: 0mph
Humidity: 69%   Direction: NA
Pressure: 30.27"   Gusts: NA
Location:  41.2282°N, 82.706°W
Report Text: KPCW 200552Z AUTO 00000KT 10SM OVC023 M02/M07 A3027 RMK AO2 56006
Loading
Personal Weather Stations






























Interactive Weather Map New forecast layout! Learn more

10-Day Weather Forecast

Advertisements
Track Severe Weather on mobile